Time;durP1;ratioP1;P1;durP2;ratioP2;P2;SDS_P1;SDS_P2;PMS_P1;PMS_P2;Temp;Humidity;BMP_temperature;BMP_pressure;BME280_temperature;BME280_humidity;BME280_pressure;Samples;Min_cycle;Max_cycle;Signal;HPM_P1;HPM_P2
2021/12/07 00:00:01;;;;;;;18.47;10.60;;;4.70;99.90;;;;;;4174554;28;20665;-63
2021/12/07 00:02:09;;;;;;;19.00;11.17;;;4.70;99.90;;;;;;4173290;28;20262;-63
2021/12/07 00:04:10;;;;;;;18.80;11.00;;;4.70;99.90;;;;;;4173967;28;20270;-62
2021/12/07 00:06:12;;;;;;;19.90;11.23;;;4.70;99.90;;;;;;4173521;28;20254;-60
2021/12/07 00:08:13;;;;;;;19.33;10.93;;;4.60;99.90;;;;;;4174046;28;20266;-64
2021/12/07 00:10:16;;;;;;;20.40;12.20;;;4.60;99.90;;;;;;4173708;28;20262;-65
2021/12/07 00:12:18;;;;;;;21.27;11.60;;;4.60;99.90;;;;;;4173049;28;20274;-66
2021/12/07 00:14:24;;;;;;;18.47;10.80;;;4.60;99.90;;;;;;4174545;28;20517;-62
2021/12/07 00:16:27;;;;;;;19.17;10.87;;;4.50;99.90;;;;;;4173530;28;20363;-66
2021/12/07 00:18:28;;;;;;;20.90;10.53;;;4.50;99.90;;;;;;4174508;28;20266;-66
2021/12/07 00:20:30;;;;;;;23.70;12.20;;;4.50;99.90;;;;;;4173046;28;20320;-65
2021/12/07 00:22:31;;;;;;;19.63;10.47;;;4.50;99.90;;;;;;4174777;28;20082;-66
2021/12/07 00:24:32;;;;;;;20.80;12.23;;;4.50;99.90;;;;;;4172101;28;20879;-63
2021/12/07 00:26:33;;;;;;;18.87;11.73;;;4.50;99.90;;;;;;4174038;28;20025;-63
2021/12/07 00:28:36;;;;;;;21.53;11.10;;;4.50;99.90;;;;;;4172644;28;20435;-64
2021/12/07 00:30:37;;;;;;;20.30;10.60;;;4.50;99.90;;;;;;4174542;28;20596;-71
2021/12/07 00:32:45;;;;;;;19.77;10.73;;;4.50;99.90;;;;;;4173068;28;20319;-66
2021/12/07 00:37:03;;;;;;;20.27;11.37;;;4.50;99.90;;;;;;4173030;28;20344;-63
2021/12/07 00:39:08;;;;;;;19.27;11.03;;;4.50;99.90;;;;;;4174484;28;20282;-60
2021/12/07 00:41:10;;;;;;;22.67;12.53;;;4.40;99.90;;;;;;4172695;28;20087;-67
2021/12/07 00:43:12;;;;;;;21.13;11.67;;;4.50;99.90;;;;;;4174038;28;20277;-71
2021/12/07 00:45:17;;;;;;;22.23;12.07;;;4.50;99.90;;;;;;4173140;28;20254;-66
2021/12/07 00:47:18;;;;;;;20.83;12.93;;;4.50;99.90;;;;;;4173032;28;20278;-71
2021/12/07 00:49:21;;;;;;;22.33;12.63;;;4.50;99.90;;;;;;4173196;28;20289;-61
2021/12/07 00:51:22;;;;;;;19.17;11.03;;;4.50;99.90;;;;;;4173534;28;20274;-68
2021/12/07 00:53:26;;;;;;;20.83;11.50;;;4.50;99.90;;;;;;4173383;28;20665;-65
2021/12/07 00:55:30;;;;;;;18.20;11.20;;;4.50;99.90;;;;;;4173083;28;20528;-66
2021/12/07 00:57:31;;;;;;;20.30;11.57;;;4.50;99.90;;;;;;4173783;28;20278;-68
2021/12/07 00:59:33;;;;;;;18.77;11.40;;;4.50;99.90;;;;;;4173200;28;20783;-63
2021/12/07 01:01:34;;;;;;;20.77;11.87;;;4.50;99.90;;;;;;4174047;28;20638;-64
2021/12/07 01:03:38;;;;;;;19.17;11.73;;;4.60;99.90;;;;;;4172486;28;20033;-68
2021/12/07 01:05:46;;;;;;;18.73;10.73;;;4.50;99.90;;;;;;4173703;28;20266;-63
2021/12/07 01:26:25;;;;;;;16.57;9.90;;;4.40;99.90;;;;;;4176884;28;20316;-67
2021/12/07 01:30:44;;;;;;;19.53;10.50;;;4.40;99.90;;;;;;4176503;28;20335;-67
2021/12/07 01:35:27;;;;;;;20.53;10.50;;;4.40;99.90;;;;;;4175890;28;20269;-71
2021/12/07 01:39:53;;;;;;;21.30;10.37;;;4.30;99.90;;;;;;4176473;28;20320;-69
2021/12/07 01:46:50;;;;;;;22.43;11.23;;;4.30;99.90;;;;;;4175579;28;20308;-62
2021/12/07 02:00:27;;;;;;;17.60;10.33;;;4.20;99.90;;;;;;4175582;28;20347;-62
2021/12/07 02:02:29;;;;;;;17.97;9.67;;;4.20;99.90;;;;;;4175751;28;20270;-65
2021/12/07 02:04:30;;;;;;;18.53;9.87;;;4.20;99.90;;;;;;4174597;28;20324;-65
2021/12/07 02:06:31;;;;;;;20.70;10.63;;;4.30;99.90;;;;;;4175952;28;20254;-64
2021/12/07 02:08:32;;;;;;;19.97;9.90;;;4.30;99.90;;;;;;4175328;28;20274;-65
2021/12/07 02:10:34;;;;;;;17.87;9.73;;;4.30;99.90;;;;;;4176062;28;20293;-62
2021/12/07 02:12:43;;;;;;;13.10;7.97;;;4.30;99.90;;;;;;4175044;28;20274;-66
2021/12/07 02:14:45;;;;;;;13.93;7.60;;;4.30;99.90;;;;;;4176367;28;20278;-67
2021/12/07 02:16:58;;;;;;;16.67;8.13;;;4.30;99.90;;;;;;4174770;28;20286;-63
2021/12/07 02:18:59;;;;;;;14.80;7.93;;;4.20;99.90;;;;;;4176141;28;20262;-65
2021/12/07 02:21:18;;;;;;;15.97;8.87;;;4.20;99.90;;;;;;4174509;28;20270;-70
2021/12/07 02:23:21;;;;;;;14.10;8.77;;;4.20;99.90;;;;;;4175945;28;20808;-63
2021/12/07 02:25:22;;;;;;;13.27;8.30;;;4.30;99.90;;;;;;4174566;28;20316;-62
2021/12/07 02:27:23;;;;;;;15.07;7.97;;;4.30;99.90;;;;;;4174804;28;20653;-63
2021/12/07 02:29:24;;;;;;;13.93;8.10;;;4.30;99.90;;;;;;4174535;28;20724;-63
2021/12/07 02:31:26;;;;;;;12.87;7.57;;;4.30;99.90;;;;;;4176000;28;20270;-66
2021/12/07 02:33:28;;;;;;;13.40;7.60;;;4.20;99.90;;;;;;4174293;28;20724;-63
2021/12/07 02:35:29;;;;;;;14.43;7.67;;;4.20;99.90;;;;;;4175629;28;20301;-69
2021/12/07 02:37:35;;;;;;;14.97;8.73;;;4.20;99.90;;;;;;4174902;28;20290;-68
2021/12/07 02:39:40;;;;;;;16.73;9.03;;;4.20;99.90;;;;;;4175289;28;20596;-64
2021/12/07 02:41:41;;;;;;;15.07;8.93;;;4.20;99.90;;;;;;4175096;28;20254;-64
2021/12/07 02:43:43;;;;;;;14.67;8.43;;;4.20;99.90;;;;;;4175026;28;20351;-65
2021/12/07 02:45:45;;;;;;;17.13;9.27;;;4.20;99.90;;;;;;4175514;28;20296;-63
2021/12/07 02:47:46;;;;;;;16.03;8.33;;;4.20;99.90;;;;;;4174538;28;21131;-64
2021/12/07 02:49:48;;;;;;;18.23;9.13;;;4.20;99.90;;;;;;4175334;28;20262;-62
2021/12/07 02:51:49;;;;;;;17.83;9.67;;;4.20;99.90;;;;;;4174400;28;20278;-64
2021/12/07 02:53:50;;;;;;;15.47;9.30;;;4.20;99.90;;;;;;4175193;28;20266;-69
2021/12/07 02:55:54;;;;;;;20.17;10.43;;;4.20;99.90;;;;;;4174267;28;20270;-66
2021/12/07 02:57:55;;;;;;;19.43;10.07;;;4.10;99.90;;;;;;4175434;28;20347;-68
2021/12/07 03:00:05;;;;;;;17.57;10.30;;;4.10;99.90;;;;;;4174163;28;20672;-65
2021/12/07 03:02:09;;;;;;;18.95;10.18;;;4.10;99.90;;;;;;4175575;28;20335;-65
2021/12/07 03:04:18;;;;;;;18.60;9.47;;;4.10;99.90;;;;;;4174059;28;20889;-70
2021/12/07 03:06:29;;;;;;;21.10;12.50;;;4.10;99.90;;;;;;4175566;28;20288;-63
2021/12/07 03:26:50;;;;;;;17.53;9.13;;;4.10;99.90;;;;;;4173412;28;20316;-69
2021/12/07 03:28:54;;;;;;;17.17;9.60;;;4.00;99.90;;;;;;4174721;28;20270;-61
2021/12/07 03:30:55;;;;;;;17.47;9.57;;;4.10;99.90;;;;;;4173893;28;20734;-64
2021/12/07 03:32:57;;;;;;;19.03;9.83;;;4.10;99.90;;;;;;4174788;28;20293;-65
2021/12/07 03:34:58;;;;;;;25.00;11.33;;;4.10;99.90;;;;;;4173848;28;20277;-65
2021/12/07 03:36:59;;;;;;;19.43;10.07;;;4.10;99.90;;;;;;4174674;28;20286;-61
2021/12/07 03:39:01;;;;;;;24.73;10.37;;;4.10;99.90;;;;;;4173375;28;20331;-62
2021/12/07 03:41:03;;;;;;;19.87;10.10;;;4.10;99.90;;;;;;4174963;28;20729;-65
2021/12/07 03:43:05;;;;;;;17.97;9.03;;;4.10;99.90;;;;;;4173806;28;20274;-70
2021/12/07 03:45:09;;;;;;;20.77;10.47;;;4.10;99.90;;;;;;4175138;28;20262;-69
2021/12/07 03:47:10;;;;;;;23.23;10.90;;;4.10;99.90;;;;;;4173684;28;20274;-63
2021/12/07 03:49:12;;;;;;;19.13;9.63;;;4.10;99.90;;;;;;4174382;28;20697;-65
2021/12/07 03:51:14;;;;;;;21.83;10.53;;;4.00;99.90;;;;;;4173142;28;20343;-64
2021/12/07 03:53:15;;;;;;;22.13;10.63;;;4.00;99.90;;;;;;4174357;28;20664;-66
2021/12/07 03:55:17;;;;;;;21.80;11.00;;;4.00;99.90;;;;;;4174059;28;20799;-66
2021/12/07 03:57:18;;;;;;;21.20;10.43;;;4.00;99.90;;;;;;4173882;28;20298;-63
2021/12/07 03:59:19;;;;;;;21.67;10.33;;;4.00;99.90;;;;;;4174237;28;20316;-70
2021/12/07 04:01:23;;;;;;;21.00;10.57;;;4.00;99.90;;;;;;4173416;28;20690;-71
2021/12/07 04:03:25;;;;;;;19.87;9.80;;;3.90;99.90;;;;;;4174711;28;20290;-65
2021/12/07 04:05:26;;;;;;;21.63;9.83;;;3.90;99.90;;;;;;4172713;28;20324;-62
2021/12/07 04:07:27;;;;;;;20.80;9.50;;;3.90;99.90;;;;;;4174378;28;20783;-62
2021/12/07 04:09:30;;;;;;;15.53;8.93;;;3.90;99.90;;;;;;4172917;28;20270;-65
2021/12/07 04:11:31;;;;;;;17.43;9.00;;;3.80;99.90;;;;;;4174259;28;20841;-69
2021/12/07 04:13:32;;;;;;;20.33;10.03;;;3.80;99.90;;;;;;4173326;28;20274;-66
2021/12/07 04:15:34;;;;;;;19.20;9.97;;;3.80;99.90;;;;;;4174837;28;20274;-70
2021/12/07 04:17:35;;;;;;;20.07;9.83;;;3.80;99.90;;;;;;4172675;28;20348;-65
2021/12/07 04:19:36;;;;;;;21.23;9.77;;;3.80;99.90;;;;;;4174370;28;20308;-63
2021/12/07 04:21:38;;;;;;;23.30;9.83;;;3.80;99.90;;;;;;4172678;28;20328;-66
2021/12/07 04:23:39;;;;;;;19.80;10.73;;;3.80;99.90;;;;;;4173037;28;20689;-62
2021/12/07 04:25:40;;;;;;;22.60;9.60;;;3.80;99.90;;;;;;4173138;28;20312;-64
2021/12/07 04:27:43;;;;;;;19.97;9.87;;;3.80;99.90;;;;;;4173257;28;20274;-63
2021/12/07 04:29:45;;;;;;;18.73;9.93;;;3.80;99.90;;;;;;4173573;28;20332;-64
2021/12/07 04:31:48;;;;;;;19.33;9.20;;;3.80;99.90;;;;;;4173275;28;20269;-62
2021/12/07 04:33:49;;;;;;;22.93;9.13;;;3.80;99.90;;;;;;4173202;28;20708;-65
2021/12/07 04:35:51;;;;;;;17.60;8.70;;;3.90;99.90;;;;;;4172759;28;20258;-65
2021/12/07 04:37:52;;;;;;;16.90;7.37;;;3.80;99.90;;;;;;4174103;28;20301;-66
2021/12/07 04:39:54;;;;;;;14.30;7.63;;;3.80;99.90;;;;;;4172832;28;20685;-65
2021/12/07 04:41:55;;;;;;;17.07;8.57;;;3.80;99.90;;;;;;4173765;28;20300;-61
2021/12/07 04:43:56;;;;;;;14.87;7.80;;;3.80;99.90;;;;;;4172243;28;20274;-62
2021/12/07 04:59:10;;;;;;;14.00;7.23;;;3.80;99.90;;;;;;4177118;28;20278;-68
2021/12/07 05:01:12;;;;;;;13.37;6.67;;;3.80;99.90;;;;;;4165533;28;20278;-65
2021/12/07 05:03:14;;;;;;;11.27;7.03;;;3.80;99.90;;;;;;4160569;28;20817;-65
2021/12/07 05:05:16;;;;;;;14.33;7.87;;;3.80;99.90;;;;;;4158727;28;20278;-62
2021/12/07 05:07:28;;;;;;;18.23;8.83;;;3.80;99.90;;;;;;4160481;28;20682;-64
2021/12/07 05:38:45;;;;;;;12.07;6.43;;;3.60;99.90;;;;;;4141966;28;20350;-68
2021/12/07 05:40:47;;;;;;;15.07;7.07;;;3.60;99.90;;;;;;4166286;28;20836;-61
2021/12/07 05:42:50;;;;;;;11.00;6.37;;;3.60;99.90;;;;;;4168118;28;20416;-66
2021/12/07 05:44:52;;;;;;;11.87;6.70;;;3.60;99.90;;;;;;4170351;28;20302;-64
2021/12/07 05:46:53;;;;;;;13.33;6.43;;;3.60;99.90;;;;;;4162278;28;20930;-66
2021/12/07 05:48:54;;;;;;;15.40;7.67;;;3.60;99.90;;;;;;4166216;28;20285;-64
2021/12/07 05:50:55;;;;;;;13.20;7.03;;;3.60;99.90;;;;;;4163605;28;20279;-62
2021/12/07 05:52:57;;;;;;;11.57;6.67;;;3.60;99.90;;;;;;4169340;28;20836;-64
2021/12/07 05:54:58;;;;;;;15.17;8.30;;;3.60;99.90;;;;;;4160060;28;20950;-65
2021/12/07 05:56:59;;;;;;;15.00;8.07;;;3.60;99.90;;;;;;4162622;28;20271;-67
2021/12/07 05:59:00;;;;;;;15.03;7.40;;;3.60;99.90;;;;;;4158529;28;20290;-66
2021/12/07 06:01:01;;;;;;;14.37;7.77;;;3.60;99.90;;;;;;4156735;28;20336;-69
2021/12/07 06:03:06;;;;;;;13.57;7.77;;;3.60;99.90;;;;;;4158257;28;20259;-64
2021/12/07 06:05:08;;;;;;;13.40;7.70;;;3.60;99.90;;;;;;4158615;28;20273;-70
2021/12/07 06:07:10;;;;;;;13.03;7.13;;;3.60;99.90;;;;;;4158624;28;20259;-69
2021/12/07 06:09:11;;;;;;;15.40;7.53;;;3.70;99.90;;;;;;4158494;28;21029;-72
2021/12/07 06:11:12;;;;;;;12.23;7.20;;;3.70;99.90;;;;;;4158935;28;20288;-71
2021/12/07 06:13:14;;;;;;;14.17;8.27;;;3.70;99.90;;;;;;4159072;28;20254;-64
2021/12/07 06:15:19;;;;;;;13.17;7.03;;;3.70;99.90;;;;;;4158665;28;20804;-62
2021/12/07 06:17:20;;;;;;;15.13;8.10;;;3.70;99.90;;;;;;4158902;28;20365;-61
2021/12/07 06:19:21;;;;;;;19.13;9.67;;;3.70;99.90;;;;;;4156893;28;20328;-62
2021/12/07 06:21:23;;;;;;;16.57;8.97;;;3.70;99.90;;;;;;4158984;28;20336;-66
2021/12/07 06:23:24;;;;;;;18.53;10.43;;;3.70;99.90;;;;;;4157850;28;20279;-64
2021/12/07 06:25:25;;;;;;;20.77;10.53;;;3.70;99.90;;;;;;4154942;28;20768;-60
2021/12/07 06:27:26;;;;;;;17.23;9.10;;;3.80;99.90;;;;;;4156502;28;20399;-61
2021/12/07 06:29:28;;;;;;;19.27;9.73;;;3.70;99.90;;;;;;4166724;28;20332;-62
2021/12/07 06:31:29;;;;;;;16.83;9.03;;;3.80;99.90;;;;;;4163455;28;20282;-66
2021/12/07 06:33:30;;;;;;;15.30;8.70;;;3.80;99.90;;;;;;4175519;28;20277;-64
2021/12/07 06:35:31;;;;;;;17.37;9.70;;;3.80;99.90;;;;;;4166944;28;20920;-63
2021/12/07 06:37:33;;;;;;;17.03;8.67;;;3.90;99.90;;;;;;4163874;28;20345;-64
2021/12/07 06:39:34;;;;;;;15.43;8.73;;;3.90;99.90;;;;;;4163400;28;20899;-64
2021/12/07 06:41:35;;;;;;;16.80;9.17;;;3.90;99.90;;;;;;4164249;28;20339;-65
2021/12/07 06:43:37;;;;;;;15.63;9.20;;;3.90;99.90;;;;;;4164818;28;20286;-64
2021/12/07 06:45:38;;;;;;;15.53;8.17;;;3.90;99.90;;;;;;4161471;28;20434;-67
2021/12/07 06:47:40;;;;;;;18.10;9.27;;;3.90;99.90;;;;;;4164758;28;20289;-68
2021/12/07 06:49:41;;;;;;;18.03;9.00;;;3.90;99.90;;;;;;4163491;28;20277;-62
2021/12/07 06:51:43;;;;;;;16.13;8.87;;;3.90;99.90;;;;;;4164202;28;20615;-63
2021/12/07 06:53:45;;;;;;;16.93;9.67;;;3.90;99.90;;;;;;4162263;28;20285;-65
2021/12/07 06:55:46;;;;;;;18.03;8.90;;;4.00;99.90;;;;;;4163048;28;20339;-62
2021/12/07 06:57:47;;;;;;;17.10;9.47;;;4.00;99.90;;;;;;4163185;28;20293;-62
2021/12/07 06:59:49;;;;;;;19.30;9.73;;;4.00;99.90;;;;;;4165649;28;20282;-61
2021/12/07 07:01:50;;;;;;;14.30;8.50;;;4.00;99.90;;;;;;4164176;28;20257;-70
2021/12/07 07:03:51;;;;;;;21.13;9.40;;;3.90;99.90;;;;;;4174819;28;20285;-59
2021/12/07 07:05:53;;;;;;;15.43;8.63;;;3.90;99.90;;;;;;4165955;28;20254;-62
2021/12/07 07:07:55;;;;;;;17.33;8.70;;;3.90;99.90;;;;;;4161855;28;21025;-61
2021/12/07 07:09:56;;;;;;;17.17;7.47;;;3.90;99.90;;;;;;4164436;28;20368;-64
2021/12/07 07:11:57;;;;;;;17.37;7.47;;;4.00;99.90;;;;;;4161583;28;20313;-61
2021/12/07 07:13:58;;;;;;;15.50;8.47;;;4.00;99.90;;;;;;4154919;28;20312;-67
2021/12/07 07:16:00;;;;;;;13.70;7.13;;;3.90;99.90;;;;;;4163353;28;20451;-60
2021/12/07 07:18:01;;;;;;;16.83;7.53;;;3.90;99.90;;;;;;4164692;28;20376;-61
2021/12/07 07:20:05;;;;;;;14.13;8.23;;;3.90;99.90;;;;;;4164761;28;20282;-61
2021/12/07 07:22:06;;;;;;;16.83;7.77;;;3.90;99.90;;;;;;4164056;28;20750;-61
2021/12/07 07:24:08;;;;;;;13.03;7.23;;;3.90;99.90;;;;;;4174250;28;20266;-62
2021/12/07 07:26:09;;;;;;;12.33;6.83;;;3.90;99.90;;;;;;4157318;28;20720;-69
2021/12/07 07:28:10;;;;;;;14.53;7.53;;;3.90;99.90;;;;;;4155509;28;20274;-71
2021/12/07 07:30:13;;;;;;;15.07;8.17;;;3.90;99.90;;;;;;4158296;28;20267;-67
2021/12/07 07:32:15;;;;;;;82.80;37.67;;;3.80;99.90;;;;;;4156600;28;20262;-65
2021/12/07 07:34:16;;;;;;;46.63;21.67;;;3.80;99.90;;;;;;4158845;28;20356;-62
2021/12/07 07:36:17;;;;;;;141.17;52.07;;;3.80;99.90;;;;;;4162161;28;20340;-66
2021/12/07 07:38:19;;;;;;;138.50;48.53;;;3.80;99.90;;;;;;4172315;28;20381;-74
2021/12/07 07:40:22;;;;;;;90.50;34.43;;;3.80;99.90;;;;;;4157224;28;20678;-63
2021/12/07 07:42:24;;;;;;;93.23;35.20;;;3.80;99.90;;;;;;4157661;28;20320;-71
2021/12/07 07:44:25;;;;;;;73.40;29.60;;;3.80;99.90;;;;;;4157603;28;20317;-62
2021/12/07 07:46:26;;;;;;;66.73;26.70;;;3.80;99.90;;;;;;4157578;28;20663;-70
2021/12/07 07:48:27;;;;;;;57.53;25.60;;;3.80;99.90;;;;;;4158350;28;20316;-63
2021/12/07 07:50:29;;;;;;;39.50;17.47;;;3.80;99.90;;;;;;4156761;28;20262;-61
2021/12/07 07:52:30;;;;;;;59.67;24.57;;;3.80;99.90;;;;;;4158465;28;20271;-62
2021/12/07 07:54:31;;;;;;;57.53;22.33;;;3.80;99.90;;;;;;4156832;28;20849;-62
2021/12/07 07:56:33;;;;;;;49.83;19.80;;;3.80;99.90;;;;;;4159101;28;21033;-63
2021/12/07 07:58:34;;;;;;;26.23;12.17;;;3.80;99.90;;;;;;4163037;28;20282;-63
2021/12/07 08:00:35;;;;;;;17.90;8.97;;;3.80;99.90;;;;;;4169215;28;20278;-62
2021/12/07 08:02:36;;;;;;;30.87;11.70;;;3.80;99.90;;;;;;4161626;28;20326;-62
2021/12/07 08:04:38;;;;;;;13.17;6.80;;;3.80;99.90;;;;;;4158123;28;20344;-66
2021/12/07 08:06:39;;;;;;;9.83;6.07;;;3.80;99.90;;;;;;4156781;28;20282;-62
2021/12/07 08:08:40;;;;;;;20.20;9.13;;;3.80;99.90;;;;;;4158662;28;20290;-62
2021/12/07 08:10:41;;;;;;;12.90;6.30;;;3.70;99.90;;;;;;4156345;28;20316;-63
2021/12/07 08:12:42;;;;;;;23.13;10.23;;;3.70;99.90;;;;;;4156875;28;20271;-63
2021/12/07 08:14:44;;;;;;;12.53;6.70;;;3.70;99.90;;;;;;4157233;28;20353;-62
2021/12/07 08:16:46;;;;;;;12.77;6.73;;;3.60;99.90;;;;;;4157075;28;20270;-62
2021/12/07 08:18:51;;;;;;;59.90;30.63;;;3.60;99.90;;;;;;4168838;28;20369;-63
2021/12/07 08:20:53;;;;;;;32.67;15.93;;;3.60;99.90;;;;;;4156350;28;20275;-62
2021/12/07 08:22:54;;;;;;;30.87;15.07;;;3.60;99.90;;;;;;4157518;28;20413;-62
2021/12/07 08:24:57;;;;;;;32.73;17.03;;;3.60;99.90;;;;;;4156259;28;20255;-63
2021/12/07 08:26:58;;;;;;;22.87;12.67;;;3.60;99.90;;;;;;4157210;28;20404;-68
2021/12/07 08:29:00;;;;;;;17.47;9.03;;;3.60;99.90;;;;;;4158987;28;20915;-63
2021/12/07 08:31:02;;;;;;;23.73;11.13;;;3.60;99.90;;;;;;4172008;28;21213;-63
2021/12/07 08:33:04;;;;;;;14.93;7.83;;;3.60;99.90;;;;;;4165585;28;20675;-63
2021/12/07 08:35:05;;;;;;;16.17;9.40;;;3.60;99.90;;;;;;4157673;28;20267;-65
2021/12/07 08:37:07;;;;;;;9.33;5.90;;;3.60;99.90;;;;;;4155739;28;20267;-62
2021/12/07 08:39:09;;;;;;;6.57;4.77;;;3.50;99.90;;;;;;4156941;28;20333;-62
2021/12/07 08:41:13;;;;;;;7.03;5.53;;;3.50;99.90;;;;;;4154593;28;20267;-62
2021/12/07 08:43:14;;;;;;;7.87;4.70;;;3.50;99.90;;;;;;4156946;28;20829;-61
2021/12/07 08:45:17;;;;;;;8.80;4.13;;;3.50;99.90;;;;;;4155743;28;20279;-63
2021/12/07 08:47:18;;;;;;;6.60;4.13;;;3.50;99.90;;;;;;4157106;28;20275;-65
2021/12/07 08:49:21;;;;;;;8.43;4.33;;;3.50;99.90;;;;;;4155960;28;20329;-62
2021/12/07 08:51:22;;;;;;;8.67;4.60;;;3.50;99.90;;;;;;4156566;28;20336;-62
2021/12/07 08:53:25;;;;;;;6.93;4.07;;;3.40;99.90;;;;;;4157088;28;20312;-62
2021/12/07 09:00:09;;;;;;;6.53;3.93;;;3.40;99.90;;;;;;4156700;28;20279;-62
2021/12/07 09:02:18;;;;;;;6.80;4.00;;;3.30;99.90;;;;;;4156195;28;21269;-61
2021/12/07 09:04:20;;;;;;;7.23;4.27;;;3.30;99.90;;;;;;4156747;28;20287;-62
2021/12/07 09:06:22;;;;;;;7.70;4.47;;;3.30;99.90;;;;;;4156340;28;20671;-70
2021/12/07 09:08:23;;;;;;;5.77;3.37;;;3.30;99.90;;;;;;4155568;28;20759;-61
2021/12/07 09:10:25;;;;;;;7.30;4.00;;;3.30;99.90;;;;;;4158309;28;20259;-62
2021/12/07 09:12:26;;;;;;;7.00;4.00;;;3.30;99.90;;;;;;4172103;28;20296;-62
2021/12/07 09:14:29;;;;;;;7.83;4.07;;;3.30;99.90;;;;;;4173415;28;20898;-63
2021/12/07 09:16:30;;;;;;;7.20;3.90;;;3.30;99.90;;;;;;4172646;28;20266;-62
2021/12/07 09:18:32;;;;;;;6.97;4.90;;;3.30;99.90;;;;;;4173089;28;20302;-61
2021/12/07 09:20:34;;;;;;;9.73;4.93;;;3.30;99.90;;;;;;4172634;28;20270;-62
2021/12/07 09:22:35;;;;;;;8.87;5.10;;;3.30;99.90;;;;;;4173597;28;20356;-62
2021/12/07 09:24:37;;;;;;;12.10;6.10;;;3.30;99.90;;;;;;4170627;28;20278;-61
2021/12/07 09:26:38;;;;;;;12.13;5.43;;;3.30;99.90;;;;;;4172562;28;20277;-65
2021/12/07 09:28:40;;;;;;;8.43;4.93;;;3.30;99.90;;;;;;4171857;28;20747;-62
2021/12/07 09:30:41;;;;;;;8.97;5.70;;;3.30;99.90;;;;;;4155698;28;20262;-63
2021/12/07 09:32:44;;;;;;;8.03;5.50;;;3.30;99.90;;;;;;4154886;28;20348;-62
2021/12/07 09:34:45;;;;;;;10.00;5.50;;;3.40;99.90;;;;;;4155970;28;20270;-62
2021/12/07 09:36:47;;;;;;;9.43;5.83;;;3.30;99.90;;;;;;4157240;28;20358;-63
2021/12/07 09:38:49;;;;;;;10.17;5.63;;;3.30;99.90;;;;;;4158592;28;20348;-63
2021/12/07 09:40:50;;;;;;;9.00;5.30;;;3.30;99.90;;;;;;4159808;28;20317;-62
2021/12/07 09:42:52;;;;;;;8.73;5.80;;;3.30;99.90;;;;;;4158571;28;20262;-61
2021/12/07 09:44:53;;;;;;;11.13;6.07;;;3.30;99.90;;;;;;4158636;28;20686;-62
2021/12/07 09:46:54;;;;;;;11.80;6.60;;;3.30;99.90;;;;;;4159304;28;20687;-63
2021/12/07 09:48:56;;;;;;;15.63;8.77;;;3.40;99.90;;;;;;4159441;28;21070;-63
2021/12/07 09:50:57;;;;;;;15.90;8.40;;;3.40;99.90;;;;;;4158430;28;20255;-61
2021/12/07 09:52:58;;;;;;;12.77;7.07;;;3.40;99.90;;;;;;4159778;28;20274;-62
2021/12/07 09:54:59;;;;;;;11.10;6.20;;;3.40;99.90;;;;;;4158374;28;20329;-64
2021/12/07 09:57:01;;;;;;;10.27;6.07;;;3.40;99.90;;;;;;4159626;28;20325;-63
2021/12/07 09:59:05;;;;;;;13.20;7.43;;;3.50;99.90;;;;;;4158089;28;20689;-61
2021/12/07 10:01:08;;;;;;;11.97;6.50;;;3.50;99.90;;;;;;4167218;28;20734;-71
2021/12/07 10:03:09;;;;;;;12.73;7.23;;;3.50;99.90;;;;;;4175303;28;20262;-72
2021/12/07 10:05:12;;;;;;;10.47;6.00;;;3.50;99.90;;;;;;4175249;28;20754;-65
2021/12/07 10:07:13;;;;;;;12.07;6.40;;;3.50;99.90;;;;;;4175564;28;20263;-69
2021/12/07 10:09:14;;;;;;;16.83;7.40;;;3.50;99.90;;;;;;4175828;28;20270;-61
2021/12/07 10:11:16;;;;;;;13.90;6.80;;;3.50;99.90;;;;;;4175573;28;20642;-64
2021/12/07 10:13:20;;;;;;;8.73;5.77;;;3.60;99.90;;;;;;4175305;28;20278;-73
2021/12/07 10:15:22;;;;;;;9.90;5.47;;;3.60;99.90;;;;;;4175961;28;20274;-71
2021/12/07 10:17:24;;;;;;;10.13;4.53;;;3.60;99.90;;;;;;4174366;28;20274;-66
2021/12/07 10:19:30;;;;;;;7.50;4.53;;;3.60;99.90;;;;;;4175624;28;20336;-73
2021/12/07 10:21:38;;;;;;;7.27;4.97;;;3.60;99.90;;;;;;4174512;28;20278;-72
2021/12/07 10:23:51;;;;;;;7.17;4.30;;;3.50;99.90;;;;;;4175057;28;20323;-71
2021/12/07 10:25:57;;;;;;;6.07;3.77;;;3.50;99.90;;;;;;4171891;28;20274;-71
2021/12/07 10:27:58;;;;;;;6.23;3.60;;;3.50;99.90;;;;;;4159257;28;20406;-69
2021/12/07 10:30:01;;;;;;;7.13;3.80;;;3.50;99.90;;;;;;4156592;28;20279;-71
2021/12/07 10:32:07;;;;;;;8.90;3.27;;;3.50;99.90;;;;;;4158990;28;20679;-64
2021/12/07 10:34:14;;;;;;;4.13;2.97;;;3.50;99.90;;;;;;4156358;28;20317;-73
2021/12/07 10:36:19;;;;;;;4.97;3.40;;;3.40;99.90;;;;;;4159536;28;20687;-67
2021/12/07 10:38:20;;;;;;;5.10;3.37;;;3.40;99.90;;;;;;4157026;28;20404;-74
2021/12/07 10:40:22;;;;;;;4.37;2.47;;;3.40;99.90;;;;;;4159707;28;20270;-70
2021/12/07 10:42:27;;;;;;;4.40;2.87;;;3.40;99.90;;;;;;4156940;28;20337;-68
2021/12/07 10:44:30;;;;;;;5.20;3.53;;;3.40;99.90;;;;;;4159055;28;20271;-66
2021/12/07 10:46:53;;;;;;;5.30;3.73;;;3.30;99.90;;;;;;4157672;28;20329;-68
2021/12/07 10:49:17;;;;;;;8.13;4.77;;;3.30;99.90;;;;;;4157356;28;20283;-69
2021/12/07 10:51:18;;;;;;;18.30;9.23;;;3.30;99.90;;;;;;4151511;28;20345;-72
2021/12/07 10:53:20;;;;;;;23.60;10.17;;;3.30;99.90;;;;;;4156010;28;20283;-65
2021/12/07 10:55:26;;;;;;;16.13;9.43;;;3.20;99.90;;;;;;4147457;28;20293;-74
2021/12/07 10:57:40;;;;;;;11.70;6.83;;;3.20;99.90;;;;;;4156840;28;20283;-63
2021/12/07 10:59:51;;;;;;;7.63;4.83;;;3.20;99.90;;;;;;4157060;28;20283;-71
2021/12/07 11:01:55;;;;;;;9.60;6.57;;;3.20;99.90;;;;;;4163683;28;20305;-67
2021/12/07 11:04:25;;;;;;;5.80;4.50;;;3.20;99.90;;;;;;4157427;28;20318;-69
2021/12/07 11:06:26;;;;;;;4.67;3.77;;;3.20;99.90;;;;;;4158663;28;20658;-64
2021/12/07 11:08:33;;;;;;;8.13;4.30;;;3.10;99.90;;;;;;4157180;28;20278;-66
2021/12/07 11:10:38;;;;;;;5.47;3.50;;;3.10;99.90;;;;;;4158740;28;20758;-65
2021/12/07 11:13:07;;;;;;;6.10;4.60;;;3.10;99.90;;;;;;4155910;28;20275;-67
2021/12/07 11:15:15;;;;;;;5.67;3.70;;;3.10;99.90;;;;;;4158259;28;20701;-63
2021/12/07 11:17:23;;;;;;;9.20;5.70;;;3.10;99.90;;;;;;4155749;28;20480;-66
2021/12/07 11:19:29;;;;;;;11.20;4.27;;;3.10;99.90;;;;;;4156985;28;20314;-64
2021/12/07 11:21:31;;;;;;;6.50;3.57;;;3.10;99.90;;;;;;4155664;28;20278;-64
2021/12/07 11:23:38;;;;;;;4.97;3.57;;;3.10;99.90;;;;;;4158697;28;20274;-63
2021/12/07 11:30:17;;;;;;;5.83;4.07;;;3.10;99.90;;;;;;4157026;28;20825;-61
2021/12/07 11:32:19;;;;;;;7.20;5.60;;;3.10;99.90;;;;;;4157993;28;20329;-67
2021/12/07 11:34:27;;;;;;;6.17;4.77;;;3.20;99.90;;;;;;4156811;28;20943;-63
2021/12/07 11:36:30;;;;;;;5.73;3.13;;;3.20;99.90;;;;;;4151101;28;20699;-61
2021/12/07 11:38:32;;;;;;;3.93;2.67;;;3.10;99.90;;;;;;4148815;28;20352;-59
2021/12/07 11:40:37;;;;;;;2.57;2.30;;;3.10;99.90;;;;;;4157902;28;20329;-60
2021/12/07 11:42:42;;;;;;;4.33;2.53;;;3.00;99.90;;;;;;4156984;28;20336;-59
2021/12/07 11:44:51;;;;;;;3.93;2.40;;;3.10;99.90;;;;;;4158003;28;20361;-59
2021/12/07 11:46:53;;;;;;;3.03;2.33;;;3.00;99.90;;;;;;4157152;28;20332;-60
2021/12/07 11:49:16;;;;;;;4.20;2.40;;;3.00;99.90;;;;;;4156833;28;20313;-63
2021/12/07 11:51:17;;;;;;;2.50;2.30;;;2.90;99.90;;;;;;4155486;28;20271;-65
2021/12/07 11:53:24;;;;;;;2.80;2.17;;;2.90;99.90;;;;;;4156940;28;20671;-62
2021/12/07 11:55:26;;;;;;;2.97;2.27;;;2.90;99.90;;;;;;4165765;28;20266;-63
2021/12/07 11:57:27;;;;;;;3.33;2.30;;;2.90;99.90;;;;;;4156453;28;20333;-61
2021/12/07 11:59:29;;;;;;;2.50;2.17;;;2.90;99.90;;;;;;4157522;28;20322;-62
2021/12/07 12:01:30;;;;;;;3.83;2.10;;;2.90;99.90;;;;;;4156701;28;20778;-62
2021/12/07 12:03:31;;;;;;;3.80;2.70;;;2.90;99.90;;;;;;4156223;28;20270;-63
2021/12/07 12:05:34;;;;;;;4.07;2.30;;;2.90;99.90;;;;;;4156022;28;20259;-62
2021/12/07 12:07:36;;;;;;;4.47;3.33;;;2.90;99.90;;;;;;4157409;28;20301;-62
2021/12/07 12:09:48;;;;;;;8.33;4.43;;;2.90;99.90;;;;;;4155838;28;20270;-62
2021/12/07 12:12:16;;;;;;;4.70;3.23;;;2.80;99.90;;;;;;4157684;28;20313;-63
2021/12/07 12:14:33;;;;;;;4.83;2.97;;;2.90;99.90;;;;;;4156635;28;20329;-63
2021/12/07 12:16:55;;;;;;;3.20;2.60;;;2.80;99.90;;;;;;4159223;28;20739;-61
2021/12/07 12:19:28;;;;;;;4.97;3.17;;;2.80;99.90;;;;;;4150610;28;20357;-63
2021/12/07 12:21:50;;;;;;;2.97;2.63;;;2.80;99.90;;;;;;4150422;28;20329;-62
2021/12/07 12:24:22;;;;;;;2.93;2.50;;;2.80;99.90;;;;;;4150850;28;20305;-63
2021/12/07 12:26:25;;;;;;;4.00;3.23;;;2.70;99.90;;;;;;4155267;28;20278;-62
2021/12/07 12:28:33;;;;;;;5.03;3.30;;;2.70;99.90;;;;;;4156174;28;20348;-63
2021/12/07 12:30:40;;;;;;;4.33;2.87;;;2.70;99.90;;;;;;4155366;28;20305;-67
2021/12/07 12:32:44;;;;;;;6.23;3.53;;;2.70;99.90;;;;;;4156262;28;20389;-64
2021/12/07 12:34:49;;;;;;;3.23;2.43;;;2.60;99.90;;;;;;4155140;28;20702;-67
2021/12/07 12:36:58;;;;;;;3.23;2.87;;;2.60;99.90;;;;;;4149593;28;20309;-62